createdAt,value
2022-08-23T00:02:28.703Z,100145.47
2022-08-23T00:05:08.079Z,100144.63
2022-08-23T00:07:40.528Z,100143.47
2022-08-23T00:10:11.614Z,100140.16
2022-08-23T00:12:41.821Z,100138.16
2022-08-23T00:15:13.162Z,100142.84
2022-08-23T00:17:42.807Z,100143.84
2022-08-23T00:20:18.509Z,100146.06
2022-08-23T00:22:48.195Z,100148.91
2022-08-23T00:25:18.266Z,100146.66
2022-08-23T00:27:48.047Z,100135.72
2022-08-23T00:30:19.211Z,100140.22
2022-08-23T00:32:49.007Z,100140.69
2022-08-23T00:35:27.224Z,100130.19
2022-08-23T00:38:31.715Z,100129.06
2022-08-23T00:40:51.174Z,100131.59
2022-08-23T00:43:35.850Z,100128.31
2022-08-23T00:46:21.633Z,100129.28
2022-08-23T00:48:51.413Z,100123.34
2022-08-23T00:51:26.073Z,100131.53
2022-08-23T00:53:59.046Z,100129.56
2022-08-23T00:56:30.224Z,100129.28
2022-08-23T00:59:01.009Z,100126.31
2022-08-23T01:01:30.964Z,100130.56
2022-08-23T01:04:04.768Z,100130.31
2022-08-23T01:06:41.713Z,100134.44
2022-08-23T01:09:15.043Z,100135.28
2022-08-23T01:11:47.421Z,100138.66
2022-08-23T01:14:19.930Z,100140.50
2022-08-23T01:16:53.605Z,100150.28
2022-08-23T01:19:27.680Z,100143.94
2022-08-23T01:22:11.505Z,100147.31
2022-08-23T01:25:05.879Z,100147.31
2022-08-23T01:27:37.451Z,100149.03
2022-08-23T01:30:10.073Z,100148.88
2022-08-23T01:32:42.851Z,100147.19
2022-08-23T01:35:13.075Z,100146.47
2022-08-23T01:37:43.059Z,100143.78
2022-08-23T01:40:16.213Z,100141.81
2022-08-23T01:42:48.011Z,100139.84
2022-08-23T01:45:18.588Z,100147.78
2022-08-23T01:47:48.290Z,100148.06
2022-08-23T01:50:19.010Z,100149.41
2022-08-23T01:52:48.769Z,100155.38
2022-08-23T01:55:24.575Z,100157.31
2022-08-23T01:57:56.932Z,100159.31
2022-08-23T02:00:32.891Z,100160.88
2022-08-23T02:03:03.444Z,100160.88
2022-08-23T02:05:34.971Z,100166.41
2022-08-23T02:08:18.558Z,100166.53
2022-08-23T02:10:50.959Z,100167.53
2022-08-23T02:13:21.613Z,100167.53
2022-08-23T02:15:52.522Z,100158.72
2022-08-23T02:18:23.266Z,100164.09
2022-08-23T02:20:54.367Z,100156.16
2022-08-23T02:23:25.365Z,100166.22
2022-08-23T02:25:57.778Z,100169.16
2022-08-23T02:28:27.936Z,100169.44
2022-08-23T02:30:57.672Z,100172.88
2022-08-23T02:33:28.439Z,100171.00
2022-08-23T02:35:58.435Z,100174.81
2022-08-23T02:38:28.267Z,100168.97
2022-08-23T02:41:01.506Z,100168.97
2022-08-23T02:43:35.675Z,100177.06
2022-08-23T02:46:08.485Z,100172.69
2022-08-23T02:48:39.313Z,100176.34
2022-08-23T02:51:11.587Z,100176.91
2022-08-23T02:53:41.548Z,100182.19
2022-08-23T02:56:21.468Z,100183.63
2022-08-23T02:58:54.182Z,100179.81
2022-08-23T03:01:27.683Z,100180.22
2022-08-23T03:04:01.676Z,100177.16
2022-08-23T03:06:33.051Z,100180.53
2022-08-23T03:09:03.191Z,100183.09
2022-08-23T03:11:35.955Z,100183.09
2022-08-23T03:14:05.730Z,100176.88
2022-08-23T03:16:35.514Z,100183.50
2022-08-23T03:19:06.632Z,100188.16
2022-08-23T03:21:37.509Z,100191.59
2022-08-23T03:24:10.392Z,100184.22
2022-08-23T03:26:44.661Z,100187.63
2022-08-23T03:29:15.862Z,100183.09
2022-08-23T03:32:00.577Z,100186.91
2022-08-23T03:34:32.626Z,100179.84
2022-08-23T03:37:02.402Z,100184.63
2022-08-23T03:39:32.316Z,100196.88
2022-08-23T03:42:06.160Z,100191.00
2022-08-23T03:44:36.817Z,100191.53
2022-08-23T03:47:06.995Z,100196.28
2022-08-23T03:49:37.633Z,100205.16
2022-08-23T03:52:07.313Z,100205.09
2022-08-23T03:54:37.417Z,100208.41
2022-08-23T03:57:12.425Z,100207.94
2022-08-23T03:59:43.805Z,100219.88
2022-08-23T04:02:15.012Z,100218.06
2022-08-23T04:04:45.597Z,100220.59
2022-08-23T04:07:39.575Z,100218.88
2022-08-23T04:10:13.781Z,100226.88
2022-08-23T04:12:46.210Z,100225.00
2022-08-23T04:15:18.644Z,100241.78
2022-08-23T04:17:48.320Z,100230.94
2022-08-23T04:20:19.267Z,100228.94
2022-08-23T04:22:59.493Z,100245.81
2022-08-23T04:25:35.472Z,100242.97
2022-08-23T04:28:09.496Z,100244.63
2022-08-23T04:30:39.230Z,100243.38
2022-08-23T04:33:10.779Z,100251.97
2022-08-23T04:35:41.431Z,100252.53
2022-08-23T04:38:24.698Z,100256.41
2022-08-23T04:41:11.698Z,100265.56
2022-08-23T04:43:45.059Z,100270.94
2022-08-23T04:46:17.346Z,100269.97
2022-08-23T04:48:50.201Z,100276.91
2022-08-23T04:51:22.293Z,100276.84
2022-08-23T04:53:52.257Z,100276.84
2022-08-23T04:56:42.747Z,100274.38
2022-08-23T04:59:16.041Z,100278.31
2022-08-23T05:01:47.704Z,100284.84
2022-08-23T05:04:17.348Z,100280.78
2022-08-23T05:06:48.065Z,100288.19
2022-08-23T05:09:20.680Z,100282.97
2022-08-23T05:11:50.941Z,100286.47
2022-08-23T05:14:23.697Z,100295.25
2022-08-23T05:16:53.834Z,100303.78
2022-08-23T05:19:25.304Z,100295.47
2022-08-23T05:21:57.230Z,100302.06
2022-08-23T05:24:36.742Z,100298.00
2022-08-23T05:27:09.586Z,100302.94
2022-08-23T05:29:45.573Z,100299.69
2022-08-23T05:32:15.274Z,100303.53
2022-08-23T05:34:44.885Z,100306.50
2022-08-23T05:37:15.703Z,100305.91
2022-08-23T05:39:45.761Z,100313.38
2022-08-23T05:42:17.695Z,100317.31
2022-08-23T05:44:51.651Z,100315.03
2022-08-23T05:47:25.002Z,100319.81
2022-08-23T05:50:24.645Z,100315.69
2022-08-23T05:52:54.354Z,100313.31
2022-08-23T05:55:34.664Z,100312.59
2022-08-23T05:58:21.850Z,100322.66
2022-08-23T06:00:55.472Z,100317.56
2022-08-23T06:03:26.887Z,100323.19
2022-08-23T06:06:00.097Z,100327.84
2022-08-23T06:08:30.228Z,100325.31
2022-08-23T06:11:04.708Z,100328.13
2022-08-23T06:13:41.274Z,100322.03
2022-08-23T06:16:15.394Z,100339.84
2022-08-23T06:18:47.215Z,100342.41
2022-08-23T06:21:43.884Z,100334.28
2022-08-23T06:24:14.441Z,100337.66
2022-08-23T06:26:54.120Z,100336.69
2022-08-23T06:29:24.354Z,100332.00
2022-08-23T06:32:15.568Z,100327.09
2022-08-23T06:35:38.911Z,100328.41
2022-08-23T06:38:06.683Z,100330.78
2022-08-23T06:40:48.156Z,100337.91
2022-08-23T06:43:30.543Z,100328.53
2022-08-23T06:46:15.366Z,100327.63
2022-08-23T06:48:49.905Z,100334.44
2022-08-23T06:51:26.458Z,100334.06
2022-08-23T06:54:08.058Z,100334.41
2022-08-23T06:56:57.686Z,100332.13
2022-08-23T06:59:32.288Z,100340.72
2022-08-23T07:02:07.305Z,100336.75
2022-08-23T07:04:59.718Z,100340.94
2022-08-23T07:07:41.423Z,100343.28
2022-08-23T07:10:16.251Z,100346.16
2022-08-23T07:12:46.920Z,100340.94
2022-08-23T07:15:17.025Z,100341.50
2022-08-23T07:17:48.579Z,100351.66
2022-08-23T07:20:20.936Z,100352.84
2022-08-23T07:22:50.576Z,100350.25
2022-08-23T07:25:20.724Z,100350.09
2022-08-23T07:27:55.725Z,100363.94
2022-08-23T07:30:25.477Z,100357.97
2022-08-23T07:32:55.255Z,100357.88
2022-08-23T07:35:29.044Z,100352.81
2022-08-23T07:38:01.660Z,100357.22
2022-08-23T07:40:38.994Z,100364.88
2022-08-23T07:43:09.105Z,100368.22
2022-08-23T07:45:40.834Z,100368.78
2022-08-23T07:48:12.236Z,100362.38
2022-08-23T07:51:09.096Z,100368.34
2022-08-23T07:53:43.058Z,100368.94
2022-08-23T07:56:17.769Z,100364.94
2022-08-23T07:59:06.543Z,100371.44
2022-08-23T08:02:03.921Z,100369.50
2022-08-23T08:04:34.000Z,100369.72
2022-08-23T08:07:21.717Z,100372.88
2022-08-23T08:09:59.100Z,100373.78
2022-08-23T08:12:32.933Z,100364.75
2022-08-23T08:15:10.339Z,100361.00
2022-08-23T08:17:42.616Z,100361.97
2022-08-23T08:20:13.072Z,100363.53
2022-08-23T08:23:04.131Z,100371.41
2022-08-23T08:26:05.523Z,100371.13
2022-08-23T08:28:36.227Z,100362.78
2022-08-23T08:31:06.639Z,100365.16
2022-08-23T08:33:36.417Z,100363.28
2022-08-23T08:36:07.777Z,100372.78
2022-08-23T08:38:51.149Z,100369.41
2022-08-23T08:41:31.782Z,100363.81
2022-08-23T08:44:08.877Z,100363.47
2022-08-23T08:46:45.253Z,100365.88
2022-08-23T08:49:21.095Z,100366.38
2022-08-23T08:51:53.949Z,100365.44
2022-08-23T08:54:29.495Z,100369.56
2022-08-23T08:57:01.489Z,100372.91
2022-08-23T08:59:43.630Z,100366.13
2022-08-23T09:02:32.056Z,100369.56
2022-08-23T09:05:09.533Z,100369.63
2022-08-23T09:07:46.078Z,100372.22
2022-08-23T09:10:49.383Z,100367.19
2022-08-23T09:13:53.742Z,100371.38
2022-08-23T09:16:33.380Z,100367.19
2022-08-23T09:19:05.155Z,100371.22
2022-08-23T09:21:43.638Z,100369.06
2022-08-23T09:24:13.482Z,100370.97
2022-08-23T09:26:59.635Z,100373.44
2022-08-23T09:29:33.006Z,100362.72
2022-08-23T09:32:06.054Z,100383.03
2022-08-23T09:34:44.433Z,100373.50
2022-08-23T09:37:22.519Z,100372.84
2022-08-23T09:39:56.333Z,100368.50
2022-08-23T09:42:37.081Z,100367.34
2022-08-23T09:45:09.815Z,100352.75
2022-08-23T09:47:43.997Z,100353.13
2022-08-23T09:50:22.767Z,100362.25
2022-08-23T09:52:53.196Z,100358.78
2022-08-23T09:55:32.178Z,100357.81
2022-08-23T09:58:06.989Z,100355.63
2022-08-23T10:00:38.519Z,100359.56
2022-08-23T10:03:26.760Z,100357.56
2022-08-23T10:06:04.014Z,100356.69
2022-08-23T10:08:43.201Z,100354.03
2022-08-23T10:11:19.005Z,100354.66
2022-08-23T10:13:52.882Z,100362.41
2022-08-23T10:16:32.506Z,100357.72
2022-08-23T10:19:13.408Z,100357.75
2022-08-23T10:21:45.304Z,100361.03
2022-08-23T10:24:23.419Z,100361.88
2022-08-23T10:27:02.937Z,100361.88
2022-08-23T10:29:37.834Z,100367.41
2022-08-23T10:32:15.726Z,100361.22
2022-08-23T10:35:03.971Z,100361.16
2022-08-23T10:37:50.202Z,100353.16
2022-08-23T10:40:25.673Z,100357.91
2022-08-23T10:43:10.471Z,100354.59
2022-08-23T10:45:44.772Z,100358.75
2022-08-23T10:48:29.864Z,100354.53
2022-08-23T10:51:03.881Z,100354.25
2022-08-23T10:53:41.478Z,100347.66
2022-08-23T10:56:16.289Z,100343.00
2022-08-23T10:58:55.696Z,100354.91
2022-08-23T11:01:32.259Z,100347.88
2022-08-23T11:04:05.440Z,100350.97
2022-08-23T11:06:51.262Z,100342.22
2022-08-23T11:09:58.641Z,100348.78
2022-08-23T11:12:34.464Z,100341.28
2022-08-23T11:15:17.022Z,100341.38
2022-08-23T11:18:04.118Z,100344.25
2022-08-23T11:20:59.638Z,100350.38
2022-08-23T11:23:42.982Z,100340.91
2022-08-23T11:26:15.172Z,100343.91
2022-08-23T11:28:47.048Z,100345.41
2022-08-23T11:31:24.342Z,100344.78
2022-08-23T11:34:04.937Z,100334.88
2022-08-23T11:36:37.465Z,100340.34
2022-08-23T11:39:19.597Z,100336.59
2022-08-23T11:42:07.441Z,100335.50
2022-08-23T11:44:43.269Z,100339.31
2022-08-23T11:47:15.769Z,100329.69
2022-08-23T11:50:08.032Z,100331.81
2022-08-23T11:53:04.375Z,100325.09
2022-08-23T11:55:54.184Z,100316.66
2022-08-23T11:58:26.697Z,100317.25
2022-08-23T12:01:00.369Z,100320.81
2022-08-23T12:03:34.336Z,100316.84
2022-08-23T12:06:32.514Z,100320.41
2022-08-23T12:09:05.168Z,100309.94
2022-08-23T12:12:04.862Z,100306.81
2022-08-23T12:14:38.348Z,100314.59
2022-08-23T12:17:29.788Z,100314.13
2022-08-23T12:20:16.742Z,100312.22
2022-08-23T12:23:05.194Z,100310.41
2022-08-23T12:25:34.879Z,100298.03
2022-08-23T12:28:10.277Z,100297.44
2022-08-23T12:30:44.406Z,100296.19
2022-08-23T12:33:31.717Z,100293.25
2022-08-23T12:36:05.643Z,100293.72
2022-08-23T12:38:58.928Z,100295.00
2022-08-23T12:41:31.915Z,100302.53
2022-08-23T12:44:04.340Z,100302.53
2022-08-23T12:46:40.216Z,100296.69
2022-08-23T12:49:14.965Z,100299.03
2022-08-23T12:51:51.320Z,100301.16
2022-08-23T12:54:25.771Z,100302.88
2022-08-23T12:56:57.224Z,100296.13
2022-08-23T12:59:36.764Z,100300.06
2022-08-23T13:02:09.244Z,100293.63
2022-08-23T13:04:43.641Z,100297.28
2022-08-23T13:07:19.765Z,100297.75
2022-08-23T13:09:53.284Z,100294.47
2022-08-23T13:12:25.447Z,100293.44
2022-08-23T13:15:01.435Z,100288.59
2022-08-23T13:17:36.884Z,100299.56
2022-08-23T13:20:23.325Z,100306.34
2022-08-23T13:23:04.598Z,100303.63
2022-08-23T13:25:39.256Z,100296.28
2022-08-23T13:28:12.172Z,100305.53
2022-08-23T13:30:41.783Z,100303.03
2022-08-23T13:33:22.788Z,100303.88
2022-08-23T13:35:53.379Z,100307.69
2022-08-23T13:38:26.571Z,100304.75
2022-08-23T13:41:02.380Z,100297.63
2022-08-23T13:43:35.995Z,100291.69
2022-08-23T13:46:15.611Z,100295.44
2022-08-23T13:48:50.270Z,100300.31
2022-08-23T13:51:29.482Z,100289.53
2022-08-23T13:54:01.080Z,100294.97
2022-08-23T13:56:36.468Z,100295.53
2022-08-23T13:59:10.779Z,100299.50
2022-08-23T14:01:40.511Z,100292.94
2022-08-23T14:04:10.183Z,100291.88
2022-08-23T14:06:39.841Z,100290.97
2022-08-23T14:09:09.547Z,100288.38
2022-08-23T14:11:42.205Z,100284.69
2022-08-23T14:14:13.496Z,100280.44
2022-08-23T14:16:44.259Z,100287.75
2022-08-23T14:19:16.565Z,100288.09
2022-08-23T14:22:04.399Z,100292.22
2022-08-23T14:24:34.237Z,100291.97
2022-08-23T14:27:07.387Z,100294.69
2022-08-23T14:29:36.897Z,100300.56
2022-08-23T14:32:06.845Z,100295.94
2022-08-23T14:34:36.504Z,100293.25
2022-08-23T14:38:02.774Z,100290.78
2022-08-23T14:39:56.042Z,100285.31
2022-08-23T14:42:28.419Z,100293.72
2022-08-23T14:44:58.061Z,100298.53
2022-08-23T14:47:27.717Z,100297.41
2022-08-23T14:49:57.360Z,100296.72
2022-08-23T14:52:27.010Z,100301.28
2022-08-23T14:54:56.694Z,100299.97
2022-08-23T14:57:28.932Z,100299.50
2022-08-23T14:59:59.102Z,100302.84
2022-08-23T15:02:29.769Z,100296.25
2022-08-23T15:04:59.395Z,100301.72
2022-08-23T15:07:29.086Z,100305.78
2022-08-23T15:09:58.768Z,100307.44
2022-08-23T15:15:22.807Z,100301.41
2022-08-23T15:17:54.152Z,100300.66
2022-08-23T15:20:31.107Z,100298.72
2022-08-23T15:23:01.112Z,100303.09
2022-08-23T15:25:33.287Z,100294.81
2022-08-23T15:28:10.835Z,100288.44
2022-08-23T15:30:42.687Z,100294.25
2022-08-23T15:33:12.356Z,100277.88
2022-08-23T15:35:44.317Z,100289.66
2022-08-23T15:38:14.936Z,100283.34
2022-08-23T15:40:44.611Z,100285.50
2022-08-23T15:43:16.831Z,100277.59
2022-08-23T15:45:46.704Z,100286.03
2022-08-23T15:48:21.113Z,100280.19
2022-08-23T15:50:50.827Z,100280.66
2022-08-23T15:53:20.457Z,100280.47
2022-08-23T15:55:50.293Z,100275.88
2022-08-23T15:58:24.828Z,100278.59
2022-08-23T16:00:56.008Z,100279.63
2022-08-23T16:03:25.982Z,100281.69
2022-08-23T16:05:56.454Z,100278.34
2022-08-23T16:08:28.641Z,100278.91
2022-08-23T16:10:59.610Z,100286.63
2022-08-23T16:13:32.037Z,100282.56
2022-08-23T16:16:01.661Z,100277.50
2022-08-23T16:18:31.325Z,100284.41
2022-08-23T16:21:01.024Z,100278.84
2022-08-23T16:23:31.128Z,100276.06
2022-08-23T16:26:01.277Z,100280.19
2022-08-23T16:28:34.001Z,100271.75
2022-08-23T16:31:03.813Z,100277.94
2022-08-23T16:33:33.529Z,100277.03
2022-08-23T16:36:03.154Z,100278.63
2022-08-23T16:38:32.769Z,100278.16
2022-08-23T16:41:02.488Z,100276.00
2022-08-23T16:43:34.682Z,100282.00
2022-08-23T16:46:04.862Z,100288.88
2022-08-23T16:48:34.922Z,100293.00
2022-08-23T16:51:04.816Z,100278.06
2022-08-23T16:53:34.659Z,100283.22
2022-08-23T16:56:04.457Z,100290.44
2022-08-23T16:58:37.331Z,100279.47
2022-08-23T17:01:07.115Z,100287.53
2022-08-23T17:03:36.769Z,100280.94
2022-08-23T17:06:06.658Z,100282.50
2022-08-23T17:08:36.337Z,100286.00
2022-08-23T17:11:06.503Z,100285.00
2022-08-23T17:13:39.679Z,100290.53
2022-08-23T17:16:10.729Z,100292.28
2022-08-23T17:18:40.638Z,100294.22
2022-08-23T17:21:11.154Z,100293.44
2022-08-23T17:23:40.938Z,100296.06
2022-08-23T17:26:10.831Z,100297.97
2022-08-23T17:28:43.047Z,100300.38
2022-08-23T17:31:13.265Z,100309.94
2022-08-23T17:33:43.269Z,100305.19
2022-08-23T17:36:31.689Z,100312.19
2022-08-23T17:39:01.357Z,100314.59
2022-08-23T17:41:33.471Z,100319.91
2022-08-23T17:44:08.564Z,100320.78
2022-08-23T17:46:38.984Z,100317.28
2022-08-23T17:49:09.634Z,100322.75
2022-08-23T17:51:41.091Z,100326.31
2022-08-23T17:54:16.408Z,100321.78
2022-08-23T17:56:49.833Z,100321.78
2022-08-23T17:59:23.483Z,100329.09
2022-08-23T18:01:53.417Z,100324.69
2022-08-23T18:04:23.070Z,100334.94
2022-08-23T18:06:52.866Z,100325.94
2022-08-23T18:09:22.753Z,100328.66
2022-08-23T18:11:52.372Z,100327.00
2022-08-23T18:14:25.099Z,100336.16
2022-08-23T18:16:54.775Z,100339.66
2022-08-23T18:19:25.381Z,100340.69
2022-08-23T18:21:55.852Z,100346.28
2022-08-23T18:24:27.440Z,100349.97
2022-08-23T18:27:09.570Z,100351.00
2022-08-23T18:29:42.345Z,100360.31
2022-08-23T18:32:15.237Z,100362.13
2022-08-23T18:34:44.916Z,100365.13
2022-08-23T18:37:16.983Z,100368.81
2022-08-23T18:39:46.886Z,100368.94
2022-08-23T18:42:16.885Z,100367.38
2022-08-23T18:44:49.168Z,100371.22
2022-08-23T18:47:18.777Z,100374.03
2022-08-23T18:49:48.698Z,100378.75
2022-08-23T18:52:18.357Z,100374.41
2022-08-23T18:54:47.990Z,100385.34
2022-08-23T18:57:17.655Z,100387.97
2022-08-23T18:59:49.861Z,100385.19
2022-08-23T19:02:20.146Z,100394.78
2022-08-23T19:04:49.825Z,100399.31
2022-08-23T19:07:19.423Z,100392.81
2022-08-23T19:09:49.031Z,100399.69
2022-08-23T19:12:18.628Z,100401.00
2022-08-23T19:14:50.816Z,100402.31
2022-08-23T19:17:20.443Z,100400.22
2022-08-23T19:19:50.252Z,100409.78
2022-08-23T19:22:19.883Z,100413.09
2022-08-23T19:24:49.538Z,100415.03
2022-08-23T19:27:19.151Z,100414.22
2022-08-23T19:29:51.402Z,100416.16
2022-08-23T19:32:21.116Z,100414.34
2022-08-23T19:34:50.773Z,100416.94
2022-08-23T19:37:23.160Z,100420.22
2022-08-23T19:39:53.062Z,100421.69
2022-08-23T19:42:23.355Z,100417.44
2022-08-23T19:44:55.640Z,100420.41
2022-08-23T19:47:28.646Z,100424.25
2022-08-23T19:49:58.570Z,100422.69
2022-08-23T19:52:28.271Z,100430.09
2022-08-23T19:55:05.361Z,100433.38
2022-08-23T19:57:37.500Z,100433.28
2022-08-23T20:00:19.082Z,100435.56
2022-08-23T20:02:49.762Z,100435.00
2022-08-23T20:05:20.116Z,100433.59
2022-08-23T20:07:49.843Z,100432.19
2022-08-23T20:10:19.579Z,100433.34
2022-08-23T20:12:49.188Z,100441.72
2022-08-23T20:15:21.570Z,100437.72
2022-08-23T20:17:51.160Z,100443.56
2022-08-23T20:20:20.828Z,100448.41
2022-08-23T20:23:03.220Z,100448.00
2022-08-23T20:25:33.692Z,100448.56
2022-08-23T20:28:07.512Z,100450.69
2022-08-23T20:30:40.250Z,100447.28
2022-08-23T20:33:09.995Z,100461.88
2022-08-23T20:35:39.585Z,100450.50
2022-08-23T20:38:09.230Z,100457.34
2022-08-23T20:40:58.819Z,100450.66
2022-08-23T20:43:28.433Z,100454.63
2022-08-23T20:46:00.676Z,100454.78
2022-08-23T20:48:30.277Z,100457.91
2022-08-23T20:51:01.896Z,100462.88
2022-08-23T20:53:32.057Z,100459.03
2022-08-23T20:56:01.906Z,100457.19
2022-08-23T20:58:31.906Z,100464.13
2022-08-23T21:01:04.703Z,100460.25
2022-08-23T21:03:39.942Z,100462.66
2022-08-23T21:06:11.721Z,100455.97
2022-08-23T21:08:43.141Z,100466.31
2022-08-23T21:11:13.626Z,100460.47
2022-08-23T21:13:43.931Z,100461.00
2022-08-23T21:16:18.162Z,100466.06
2022-08-23T21:18:48.694Z,100464.78
2022-08-23T21:21:21.524Z,100461.50
2022-08-23T21:23:51.446Z,100461.91
2022-08-23T21:26:22.188Z,100467.44
2022-08-23T21:28:52.139Z,100467.72
2022-08-23T21:31:27.021Z,100473.94
2022-08-23T21:33:57.635Z,100471.38
2022-08-23T21:36:27.221Z,100461.72
2022-08-23T21:38:56.832Z,100465.69
2022-08-23T21:41:35.239Z,100456.03
2022-08-23T21:44:06.848Z,100464.09
2022-08-23T21:46:39.241Z,100469.34
2022-08-23T21:49:09.330Z,100467.06
2022-08-23T21:51:42.664Z,100466.59
2022-08-23T21:54:13.729Z,100463.59
2022-08-23T21:56:43.803Z,100467.69
2022-08-23T21:59:16.619Z,100465.53
2022-08-23T22:01:49.325Z,100471.28
2022-08-23T22:04:19.504Z,100467.41
2022-08-23T22:06:50.337Z,100468.78
2022-08-23T22:09:28.151Z,100463.06
2022-08-23T22:12:01.025Z,100470.66
2022-08-23T22:14:32.007Z,100472.75
2022-08-23T22:17:04.395Z,100474.13
2022-08-23T22:19:34.157Z,100473.66
2022-08-23T22:22:03.775Z,100482.00
2022-08-23T22:24:33.387Z,100475.75
2022-08-23T22:27:03.003Z,100477.47
2022-08-23T22:29:32.668Z,100486.53
2022-08-23T22:32:05.031Z,100477.97
2022-08-23T22:34:34.645Z,100477.38
2022-08-23T22:37:04.255Z,100479.47
2022-08-23T22:39:33.863Z,100471.78
2022-08-23T22:42:03.477Z,100474.59
2022-08-23T22:44:33.845Z,100478.41
2022-08-23T22:47:06.360Z,100481.34
2022-08-23T22:49:36.361Z,100484.28
2022-08-23T22:52:07.128Z,100480.88
2022-08-23T22:54:36.768Z,100482.72
2022-08-23T22:57:06.784Z,100475.75
2022-08-23T22:59:36.598Z,100478.69
2022-08-23T23:02:09.637Z,100481.66
2022-08-23T23:04:40.427Z,100483.84
2022-08-23T23:07:10.068Z,100485.09
2022-08-23T23:09:41.424Z,100476.50
2022-08-23T23:12:11.148Z,100471.38
2022-08-23T23:14:40.926Z,100476.00
2022-08-23T23:17:13.120Z,100475.53
2022-08-23T23:19:55.188Z,100477.38
2022-08-23T23:22:24.783Z,100473.22
2022-08-23T23:24:54.401Z,100476.16
2022-08-23T23:27:23.999Z,100479.13
2022-08-23T23:29:53.616Z,100476.53
2022-08-23T23:32:25.809Z,100483.88
2022-08-23T23:34:55.432Z,100473.38
2022-08-23T23:37:28.255Z,100478.13
2022-08-23T23:39:58.894Z,100472.13
2022-08-23T23:42:28.727Z,100472.38
2022-08-23T23:44:58.444Z,100467.28
2022-08-23T23:47:30.635Z,100468.38
2022-08-23T23:50:00.589Z,100469.47
2022-08-23T23:52:30.178Z,100466.06
2022-08-23T23:55:00.139Z,100471.44
2022-08-23T23:57:29.756Z,100462.75
2022-08-23T23:59:59.748Z,100466.16
